createdAt,value
2022-12-24T00:01:43.935Z,94.21
2022-12-24T00:06:43.912Z,93.70
2022-12-24T00:11:43.773Z,91.52
2022-12-24T00:16:43.810Z,90.59
2022-12-24T00:21:43.669Z,89.84
2022-12-24T00:26:43.567Z,90.45
2022-12-24T00:31:43.515Z,90.08
2022-12-24T00:36:43.444Z,90.39
2022-12-24T00:41:43.399Z,92.74
2022-12-24T00:46:43.443Z,93.80
2022-12-24T00:51:43.257Z,94.32
2022-12-24T00:56:43.205Z,94.67
2022-12-24T01:01:43.195Z,94.87
2022-12-24T01:06:43.051Z,94.30
2022-12-24T01:11:43.003Z,93.18
2022-12-24T01:16:42.905Z,90.78
2022-12-24T01:21:42.839Z,89.76
2022-12-24T01:26:42.840Z,88.29
2022-12-24T01:31:42.824Z,87.98
2022-12-24T01:36:42.671Z,87.53
2022-12-24T01:41:42.593Z,88.39
2022-12-24T01:46:42.571Z,88.70
2022-12-24T01:51:42.450Z,88.18
2022-12-24T01:56:42.384Z,88.18
2022-12-24T02:01:42.411Z,87.98
2022-12-24T02:06:42.244Z,88.18
2022-12-24T02:11:42.205Z,88.59
2022-12-24T02:16:42.224Z,88.90
2022-12-24T02:21:42.037Z,89.31
2022-12-24T02:26:42.055Z,89.00
2022-12-24T02:31:42.009Z,88.64
2022-12-24T02:36:41.902Z,87.57
2022-12-24T02:41:41.835Z,86.85
2022-12-24T02:46:41.739Z,87.37
2022-12-24T02:51:41.658Z,88.29
2022-12-24T02:56:41.617Z,89.72
2022-12-24T03:01:41.697Z,89.76
2022-12-24T03:06:41.457Z,89.65
2022-12-24T03:11:41.384Z,89.65
2022-12-24T03:16:41.391Z,89.45
2022-12-24T03:21:41.257Z,90.27
2022-12-24T03:26:41.232Z,90.37
2022-12-24T03:31:41.202Z,90.27
2022-12-24T03:36:41.048Z,90.99
2022-12-24T03:41:40.967Z,90.47
2022-12-24T03:46:40.937Z,90.06
2022-12-24T03:51:40.860Z,89.86
2022-12-24T03:56:40.801Z,88.94
2022-12-24T04:01:40.794Z,88.84
2022-12-24T04:06:40.647Z,88.64
2022-12-24T04:11:40.570Z,87.98
2022-12-24T04:16:40.619Z,87.67
2022-12-24T04:21:40.437Z,86.24
2022-12-24T04:26:40.387Z,85.83
2022-12-24T04:31:40.369Z,84.98
2022-12-24T04:36:40.227Z,84.47
2022-12-24T04:41:40.190Z,83.65
2022-12-24T04:46:40.157Z,83.14
2022-12-24T04:51:40.051Z,82.73
2022-12-24T04:56:39.968Z,82.32
2022-12-24T05:01:40.013Z,82.53
2022-12-24T05:06:39.868Z,82.83
2022-12-24T05:11:39.767Z,83.34
2022-12-24T05:16:39.759Z,83.95
2022-12-24T05:21:39.639Z,84.50
2022-12-24T05:26:39.630Z,85.12
2022-12-24T05:31:39.524Z,86.29
2022-12-24T05:36:39.450Z,86.38
2022-12-24T05:41:39.455Z,86.69
2022-12-24T05:46:39.394Z,86.29
2022-12-24T05:51:39.264Z,85.50
2022-12-24T05:56:39.233Z,84.65
2022-12-24T06:01:39.231Z,84.24
2022-12-24T06:06:39.049Z,84.14
2022-12-24T06:11:39.049Z,84.34
2022-12-24T06:16:39.040Z,84.17
2022-12-24T06:21:38.896Z,84.89
2022-12-24T06:26:38.777Z,85.30
2022-12-24T06:31:38.745Z,85.10
2022-12-24T06:36:38.682Z,84.69
2022-12-24T06:41:38.571Z,84.17
2022-12-24T06:46:38.634Z,83.87
2022-12-24T06:51:38.474Z,81.51
2022-12-24T06:56:38.371Z,80.56
2022-12-24T07:01:38.389Z,79.74
2022-12-24T07:06:38.271Z,78.72
2022-12-24T07:11:38.208Z,78.00
2022-12-24T07:16:38.283Z,78.11
2022-12-24T07:21:38.070Z,77.39
2022-12-24T07:26:38.043Z,77.70
2022-12-24T07:31:38.094Z,76.47
2022-12-24T07:36:37.915Z,76.78
2022-12-24T07:41:41.666Z,76.57
2022-12-24T07:46:37.782Z,75.85
2022-12-24T07:51:37.673Z,75.34
2022-12-24T07:56:37.642Z,75.75
2022-12-24T08:01:37.633Z,76.16
2022-12-24T08:06:37.491Z,76.26
2022-12-24T08:11:37.372Z,77.49
2022-12-24T08:16:37.383Z,78.92
2022-12-24T08:21:37.242Z,79.74
2022-12-24T08:26:38.084Z,79.94
2022-12-24T08:31:37.180Z,80.15
2022-12-24T08:36:37.042Z,80.39
2022-12-24T08:41:37.076Z,80.49
2022-12-24T08:46:37.407Z,80.19
2022-12-24T08:51:36.917Z,80.08
2022-12-24T08:56:36.808Z,80.05
2022-12-24T09:01:36.858Z,91.79
2022-12-24T09:06:36.641Z,77.03
2022-12-24T09:11:36.622Z,74.85
2022-12-24T09:16:36.668Z,78.17
2022-12-24T09:21:36.465Z,74.51
2022-12-24T09:26:36.430Z,72.38
2022-12-24T09:31:36.444Z,75.22
2022-12-24T09:36:36.390Z,70.55
2022-12-24T09:41:36.251Z,74.14
2022-12-24T09:46:36.136Z,70.89
2022-12-24T09:51:36.075Z,65.59
2022-12-24T09:56:36.030Z,72.11
2022-12-24T10:01:36.021Z,71.03
2022-12-24T10:06:35.862Z,68.73
2022-12-24T10:11:35.808Z,69.54
2022-12-24T10:16:35.786Z,71.30
2022-12-24T10:21:35.658Z,66.02
2022-12-24T10:26:35.618Z,67.92
2022-12-24T10:31:35.574Z,70.65
2022-12-24T10:36:35.483Z,67.88
2022-12-24T10:41:35.387Z,72.38
2022-12-24T10:46:35.377Z,71.64
2022-12-24T10:51:35.273Z,70.52
2022-12-24T10:56:35.219Z,70.93
2022-12-24T11:01:35.207Z,67.78
2022-12-24T11:06:35.051Z,66.49
2022-12-24T11:11:35.069Z,68.08
2022-12-24T11:16:35.118Z,70.14
2022-12-24T11:21:35.352Z,71.30
2022-12-24T11:26:34.791Z,72.65
2022-12-24T11:31:34.792Z,73.97
2022-12-24T11:36:34.709Z,73.84
2022-12-24T11:41:34.650Z,72.34
2022-12-24T11:46:34.567Z,75.40
2022-12-24T11:51:34.539Z,74.08
2022-12-24T11:56:34.541Z,76.92
2022-12-24T12:01:34.408Z,73.23
2022-12-24T12:06:35.012Z,73.43
2022-12-24T12:11:34.257Z,73.63
2022-12-24T12:16:34.186Z,72.86
2022-12-24T12:21:34.010Z,75.50
2022-12-24T12:26:33.987Z,74.72
2022-12-24T12:31:33.944Z,76.49
2022-12-24T12:36:33.808Z,76.90
2022-12-24T12:41:33.819Z,76.90
2022-12-24T12:46:33.750Z,77.61
2022-12-24T12:51:33.772Z,77.78
2022-12-24T12:56:33.557Z,76.86
2022-12-24T13:01:33.607Z,75.88
2022-12-24T13:06:33.419Z,77.95
2022-12-24T13:11:33.380Z,77.95
2022-12-24T13:16:33.361Z,80.63
2022-12-24T13:21:33.404Z,79.88
2022-12-24T13:26:33.186Z,79.50
2022-12-24T13:31:33.174Z,79.41
2022-12-24T13:36:33.044Z,73.83
2022-12-24T13:41:38.824Z,76.44
2022-12-24T13:46:33.957Z,74.65
2022-12-24T13:51:32.820Z,77.36
2022-12-24T13:56:32.791Z,71.57
2022-12-24T14:01:32.816Z,75.73
2022-12-24T14:06:32.692Z,75.19
2022-12-24T14:11:37.841Z,72.41
2022-12-24T14:16:33.538Z,77.60
2022-12-24T14:21:32.442Z,76.21
2022-12-24T14:26:32.341Z,73.94
2022-12-24T14:31:32.352Z,74.62
2022-12-24T14:36:32.247Z,74.01
2022-12-24T14:41:32.139Z,77.30
2022-12-24T14:46:32.106Z,76.18
2022-12-24T14:51:32.042Z,79.24
2022-12-24T14:56:31.969Z,76.32
2022-12-24T15:01:32.292Z,76.53
2022-12-24T15:06:31.867Z,76.76
2022-12-24T15:11:31.775Z,79.27
2022-12-24T15:16:31.754Z,81.76
2022-12-24T15:21:31.615Z,80.87
2022-12-24T15:26:31.582Z,76.93
2022-12-24T15:31:31.574Z,79.00
2022-12-24T15:36:31.534Z,79.08
2022-12-24T15:41:31.367Z,81.43
2022-12-24T15:46:31.340Z,82.22
2022-12-24T15:51:31.274Z,84.14
2022-12-24T15:56:31.161Z,85.50
2022-12-24T16:01:31.192Z,86.77
2022-12-24T16:06:31.027Z,86.88
2022-12-24T16:11:30.982Z,84.99
2022-12-24T16:16:30.912Z,85.55
2022-12-24T16:21:30.817Z,87.70
2022-12-24T16:26:30.786Z,89.12
2022-12-24T16:31:30.724Z,87.53
2022-12-24T16:36:30.645Z,88.43
2022-12-24T16:41:30.550Z,91.65
2022-12-24T16:46:30.636Z,91.28
2022-12-24T16:51:30.444Z,90.77
2022-12-24T16:56:30.371Z,92.14
2022-12-24T17:01:30.392Z,93.48
2022-12-24T17:06:30.559Z,93.68
2022-12-24T17:11:30.818Z,92.76
2022-12-24T17:16:32.092Z,93.17
2022-12-24T17:21:30.045Z,93.79
2022-12-24T17:26:29.977Z,93.27
2022-12-24T17:31:29.963Z,92.86
2022-12-24T17:36:29.814Z,93.12
2022-12-24T17:41:29.780Z,93.57
2022-12-24T17:46:29.711Z,95.25
2022-12-24T17:51:29.636Z,95.86
2022-12-24T17:56:29.541Z,96.83
2022-12-24T18:01:29.536Z,97.03
2022-12-24T18:06:36.386Z,97.08
2022-12-24T18:11:29.313Z,99.51
2022-12-24T18:16:29.362Z,98.88
2022-12-24T18:21:29.220Z,98.79
2022-12-24T18:26:29.146Z,97.90
2022-12-24T18:31:29.082Z,98.67
2022-12-24T18:36:29.043Z,99.18
2022-12-24T18:41:29.002Z,99.95
2022-12-24T18:46:28.962Z,99.99
2022-12-24T18:51:28.813Z,99.99
2022-12-24T18:56:28.724Z,99.99
2022-12-24T19:01:28.939Z,99.99
2022-12-24T19:06:28.697Z,99.99
2022-12-24T19:11:28.562Z,99.99
2022-12-24T19:16:28.848Z,99.99
2022-12-24T19:21:28.437Z,99.99
2022-12-24T19:26:28.351Z,99.99
2022-12-24T19:31:28.311Z,99.99
2022-12-24T19:36:28.198Z,99.99
2022-12-24T19:41:28.238Z,99.99
2022-12-24T19:46:28.089Z,99.99
2022-12-24T19:51:28.021Z,99.99
2022-12-24T19:56:27.963Z,99.99
2022-12-24T20:01:29.158Z,99.99
2022-12-24T20:06:27.851Z,99.54
2022-12-24T20:11:28.270Z,97.23
2022-12-24T20:16:27.737Z,95.84
2022-12-24T20:21:28.554Z,95.14
2022-12-24T20:26:28.057Z,91.76
2022-12-24T20:31:27.543Z,92.70
2022-12-24T20:36:27.778Z,90.12
2022-12-24T20:41:27.597Z,90.42
2022-12-24T20:46:27.347Z,89.70
2022-12-24T20:51:27.279Z,90.12
2022-12-24T20:56:27.261Z,90.88
2022-12-24T21:01:27.255Z,90.63
2022-12-24T21:06:27.261Z,91.29
2022-12-24T21:11:27.034Z,91.85
2022-12-24T21:16:26.904Z,92.36
2022-12-24T21:21:27.063Z,93.39
2022-12-24T21:26:26.759Z,92.92
2022-12-24T21:31:26.789Z,93.12
2022-12-24T21:36:26.659Z,93.58
2022-12-24T21:41:26.574Z,94.34
2022-12-24T21:46:26.550Z,93.83
2022-12-24T21:51:26.540Z,94.18
2022-12-24T21:56:26.390Z,94.84
2022-12-24T22:01:26.386Z,95.46
2022-12-24T22:06:26.377Z,96.74
2022-12-24T22:11:29.708Z,97.26
2022-12-24T22:16:26.451Z,97.88
2022-12-24T22:21:33.236Z,96.06
2022-12-24T22:26:32.977Z,96.77
2022-12-24T22:31:32.938Z,98.53
2022-12-24T22:36:25.831Z,99.99
2022-12-24T22:41:25.750Z,99.99
2022-12-24T22:46:25.878Z,99.99
2022-12-24T22:51:25.655Z,99.99
2022-12-24T22:56:25.691Z,99.99
2022-12-24T23:01:25.590Z,99.99
2022-12-24T23:06:25.432Z,98.94
2022-12-24T23:11:25.360Z,98.74
2022-12-24T23:16:26.454Z,98.78
2022-12-24T23:21:25.284Z,99.44
2022-12-24T23:26:25.165Z,99.55
2022-12-24T23:31:25.689Z,99.99
2022-12-24T23:36:25.217Z,99.99
2022-12-24T23:41:25.334Z,99.99
2022-12-24T23:46:25.728Z,99.99
2022-12-24T23:51:25.128Z,99.99
2022-12-24T23:56:24.799Z,99.99
